Ana Sayfa
METAR-TAF:

METAR-TAF

Havaalanları :

Minna, Nijerya

Enlem: 9-37N, Boylam: 6-32E, yükseklik: 260 m

Güncel hava durumu gözlemi

Rapor saat 03:00 UTC de 5 saat ve 8 dakika önce yapıldı.
Rüzgar güneydoğudan 5 kt
Sıcaklık 23°C
Nem 94%
Basınç 1009 hPa
Görüş mesafesi 10 km veya daha fazla
1500 m altında bulut yok ve kümülonimbus yok

METAR: DNMN 190300Z 13005KT CAVOK 23/22 Q1009

Saat: 09:08 (08:08 UTC)


TAF: eksik

4.000'den fazla havaalanı için hava durumu gözlemleri ve tahminleri (METAR ve TAF raporları).

Kullanılabilir istasyonlar harita üzerinde sarı ve kırmızı noktalarla gösterilir.

İstasyonun adını görmek için fareyi noktanın üzerinde gezdirin.

Sonrasında hava gözlem ve tahminlerini görmek için tıklayın.

Haritayı değiştirmek için: yaklaştırmak için siyah artı işaretli yeşil düğmeye ve uzaklaştırmak için de eksi işaretli düğmeye hızla tıklayın; bitişik haritalar için yeşil okları kullanın.


METAR-TAF: